sensor_id;sensor_type;location;lat;lon;timestamp;P1;durP1;ratioP1;P2;durP2;ratioP2
46589;SDS011;32313;48.722;9.362;2023-12-07T00:00:28;25.37;;;22.77;;
46589;SDS011;32313;48.722;9.362;2023-12-07T00:02:54;29.57;;;25.10;;
46589;SDS011;32313;48.722;9.362;2023-12-07T00:05:20;25.13;;;22.50;;
46589;SDS011;32313;48.722;9.362;2023-12-07T00:07:45;25.10;;;22.60;;
46589;SDS011;32313;48.722;9.362;2023-12-07T00:10:11;28.10;;;24.20;;
46589;SDS011;32313;48.722;9.362;2023-12-07T00:12:37;25.83;;;23.00;;
46589;SDS011;32313;48.722;9.362;2023-12-07T00:15:02;24.93;;;22.53;;
46589;SDS011;32313;48.722;9.362;2023-12-07T00:17:28;24.27;;;21.77;;
46589;SDS011;32313;48.722;9.362;2023-12-07T00:19:54;27.33;;;23.83;;
46589;SDS011;32313;48.722;9.362;2023-12-07T00:22:20;25.50;;;22.90;;
46589;SDS011;32313;48.722;9.362;2023-12-07T00:24:46;24.47;;;21.97;;
46589;SDS011;32313;48.722;9.362;2023-12-07T00:27:12;25.70;;;23.30;;
46589;SDS011;32313;48.722;9.362;2023-12-07T00:29:37;22.27;;;20.07;;
46589;SDS011;32313;48.722;9.362;2023-12-07T00:32:04;25.27;;;22.90;;
46589;SDS011;32313;48.722;9.362;2023-12-07T00:34:30;25.93;;;23.33;;
46589;SDS011;32313;48.722;9.362;2023-12-07T00:36:55;26.93;;;24.17;;
46589;SDS011;32313;48.722;9.362;2023-12-07T00:39:21;25.73;;;22.77;;
46589;SDS011;32313;48.722;9.362;2023-12-07T00:41:47;26.33;;;23.73;;
46589;SDS011;32313;48.722;9.362;2023-12-07T00:44:15;25.70;;;23.10;;
46589;SDS011;32313;48.722;9.362;2023-12-07T00:46:41;26.63;;;23.80;;
46589;SDS011;32313;48.722;9.362;2023-12-07T00:49:07;25.80;;;23.23;;
46589;SDS011;32313;48.722;9.362;2023-12-07T00:51:32;26.17;;;23.47;;
46589;SDS011;32313;48.722;9.362;2023-12-07T00:53:58;24.90;;;22.37;;
46589;SDS011;32313;48.722;9.362;2023-12-07T00:56:24;28.67;;;24.63;;
46589;SDS011;32313;48.722;9.362;2023-12-07T00:58:50;27.13;;;23.87;;
46589;SDS011;32313;48.722;9.362;2023-12-07T01:01:15;27.13;;;24.33;;
46589;SDS011;32313;48.722;9.362;2023-12-07T01:03:41;25.67;;;23.20;;
46589;SDS011;32313;48.722;9.362;2023-12-07T01:06:07;27.27;;;24.50;;
46589;SDS011;32313;48.722;9.362;2023-12-07T01:08:33;26.73;;;24.03;;
46589;SDS011;32313;48.722;9.362;2023-12-07T01:10:58;27.10;;;23.67;;
46589;SDS011;32313;48.722;9.362;2023-12-07T01:13:24;25.87;;;23.07;;
46589;SDS011;32313;48.722;9.362;2023-12-07T01:15:50;26.97;;;24.13;;
46589;SDS011;32313;48.722;9.362;2023-12-07T01:18:16;26.03;;;23.33;;
46589;SDS011;32313;48.722;9.362;2023-12-07T01:20:42;25.47;;;22.73;;
46589;SDS011;32313;48.722;9.362;2023-12-07T01:23:07;26.83;;;23.93;;
46589;SDS011;32313;48.722;9.362;2023-12-07T01:25:33;28.17;;;25.20;;
46589;SDS011;32313;48.722;9.362;2023-12-07T01:27:59;28.70;;;25.80;;
46589;SDS011;32313;48.722;9.362;2023-12-07T01:30:25;27.80;;;24.90;;
46589;SDS011;32313;48.722;9.362;2023-12-07T01:32:51;25.93;;;23.27;;
46589;SDS011;32313;48.722;9.362;2023-12-07T01:35:16;25.73;;;23.10;;
46589;SDS011;32313;48.722;9.362;2023-12-07T01:37:42;31.83;;;26.73;;
46589;SDS011;32313;48.722;9.362;2023-12-07T01:40:07;26.57;;;23.67;;
46589;SDS011;32313;48.722;9.362;2023-12-07T01:42:38;27.10;;;24.23;;
46589;SDS011;32313;48.722;9.362;2023-12-07T01:45:04;28.27;;;25.47;;
46589;SDS011;32313;48.722;9.362;2023-12-07T01:47:31;39.17;;;28.93;;
46589;SDS011;32313;48.722;9.362;2023-12-07T01:49:58;41.27;;;30.07;;
46589;SDS011;32313;48.722;9.362;2023-12-07T01:52:27;45.53;;;32.93;;
46589;SDS011;32313;48.722;9.362;2023-12-07T01:54:54;49.43;;;32.17;;
46589;SDS011;32313;48.722;9.362;2023-12-07T01:57:20;53.20;;;34.43;;
46589;SDS011;32313;48.722;9.362;2023-12-07T01:59:46;41.93;;;30.73;;
46589;SDS011;32313;48.722;9.362;2023-12-07T02:02:14;42.97;;;31.23;;
46589;SDS011;32313;48.722;9.362;2023-12-07T02:04:40;32.37;;;27.00;;
46589;SDS011;32313;48.722;9.362;2023-12-07T02:07:05;33.13;;;27.53;;
46589;SDS011;32313;48.722;9.362;2023-12-07T02:09:32;31.07;;;26.20;;
46589;SDS011;32313;48.722;9.362;2023-12-07T02:11:57;31.90;;;27.60;;
46589;SDS011;32313;48.722;9.362;2023-12-07T02:14:23;29.93;;;26.77;;
46589;SDS011;32313;48.722;9.362;2023-12-07T02:16:51;29.23;;;26.03;;
46589;SDS011;32313;48.722;9.362;2023-12-07T02:19:51;27.83;;;24.30;;
46589;SDS011;32313;48.722;9.362;2023-12-07T02:22:28;29.57;;;25.93;;
46589;SDS011;32313;48.722;9.362;2023-12-07T02:27:39;29.87;;;26.87;;
46589;SDS011;32313;48.722;9.362;2023-12-07T02:30:08;30.13;;;26.90;;
46589;SDS011;32313;48.722;9.362;2023-12-07T02:32:36;30.27;;;27.13;;
46589;SDS011;32313;48.722;9.362;2023-12-07T02:35:02;28.27;;;25.17;;
46589;SDS011;32313;48.722;9.362;2023-12-07T02:37:35;32.07;;;27.83;;
46589;SDS011;32313;48.722;9.362;2023-12-07T02:40:06;30.07;;;26.93;;
46589;SDS011;32313;48.722;9.362;2023-12-07T02:42:35;28.43;;;25.43;;
46589;SDS011;32313;48.722;9.362;2023-12-07T02:45:04;29.47;;;26.37;;
46589;SDS011;32313;48.722;9.362;2023-12-07T02:47:30;27.17;;;24.57;;
46589;SDS011;32313;48.722;9.362;2023-12-07T02:49:56;27.20;;;24.50;;
46589;SDS011;32313;48.722;9.362;2023-12-07T02:52:22;28.63;;;25.60;;
46589;SDS011;32313;48.722;9.362;2023-12-07T02:54:47;30.20;;;27.40;;
46589;SDS011;32313;48.722;9.362;2023-12-07T02:57:13;28.17;;;25.20;;
46589;SDS011;32313;48.722;9.362;2023-12-07T02:59:40;28.83;;;25.90;;
46589;SDS011;32313;48.722;9.362;2023-12-07T03:02:06;30.30;;;27.17;;
46589;SDS011;32313;48.722;9.362;2023-12-07T03:04:32;29.80;;;26.70;;
46589;SDS011;32313;48.722;9.362;2023-12-07T03:06:58;31.47;;;28.07;;
46589;SDS011;32313;48.722;9.362;2023-12-07T03:09:24;28.53;;;24.87;;
46589;SDS011;32313;48.722;9.362;2023-12-07T03:11:50;30.60;;;27.33;;
46589;SDS011;32313;48.722;9.362;2023-12-07T03:14:16;29.13;;;26.10;;
46589;SDS011;32313;48.722;9.362;2023-12-07T03:16:41;28.27;;;25.37;;
46589;SDS011;32313;48.722;9.362;2023-12-07T03:19:07;29.27;;;26.30;;
46589;SDS011;32313;48.722;9.362;2023-12-07T03:21:33;30.00;;;27.00;;
46589;SDS011;32313;48.722;9.362;2023-12-07T03:23:58;32.97;;;28.53;;
46589;SDS011;32313;48.722;9.362;2023-12-07T03:26:24;30.80;;;26.57;;
46589;SDS011;32313;48.722;9.362;2023-12-07T03:28:50;32.20;;;28.70;;
46589;SDS011;32313;48.722;9.362;2023-12-07T03:31:16;32.23;;;28.90;;
46589;SDS011;32313;48.722;9.362;2023-12-07T03:33:41;31.30;;;27.90;;
46589;SDS011;32313;48.722;9.362;2023-12-07T03:36:10;30.60;;;27.47;;
46589;SDS011;32313;48.722;9.362;2023-12-07T03:38:36;29.87;;;26.70;;
46589;SDS011;32313;48.722;9.362;2023-12-07T03:41:02;30.40;;;27.20;;
46589;SDS011;32313;48.722;9.362;2023-12-07T03:43:28;29.80;;;26.80;;
46589;SDS011;32313;48.722;9.362;2023-12-07T03:45:54;31.57;;;28.13;;
46589;SDS011;32313;48.722;9.362;2023-12-07T03:48:20;30.63;;;27.50;;
46589;SDS011;32313;48.722;9.362;2023-12-07T03:50:46;30.37;;;27.07;;
46589;SDS011;32313;48.722;9.362;2023-12-07T03:53:11;32.93;;;29.40;;
46589;SDS011;32313;48.722;9.362;2023-12-07T03:55:37;30.47;;;27.33;;
46589;SDS011;32313;48.722;9.362;2023-12-07T03:58:04;32.73;;;28.87;;
46589;SDS011;32313;48.722;9.362;2023-12-07T04:00:31;34.10;;;29.57;;
46589;SDS011;32313;48.722;9.362;2023-12-07T04:02:57;31.47;;;28.17;;
46589;SDS011;32313;48.722;9.362;2023-12-07T04:05:23;34.07;;;30.37;;
46589;SDS011;32313;48.722;9.362;2023-12-07T04:07:48;34.80;;;31.23;;
46589;SDS011;32313;48.722;9.362;2023-12-07T04:10:14;31.50;;;28.07;;
46589;SDS011;32313;48.722;9.362;2023-12-07T04:12:40;34.70;;;30.60;;
46589;SDS011;32313;48.722;9.362;2023-12-07T04:15:06;34.70;;;30.07;;
46589;SDS011;32313;48.722;9.362;2023-12-07T04:17:32;34.53;;;30.80;;
46589;SDS011;32313;48.722;9.362;2023-12-07T04:19:58;32.67;;;29.33;;
46589;SDS011;32313;48.722;9.362;2023-12-07T04:22:23;33.20;;;29.83;;
46589;SDS011;32313;48.722;9.362;2023-12-07T04:24:49;37.10;;;31.00;;
46589;SDS011;32313;48.722;9.362;2023-12-07T04:27:15;34.30;;;30.00;;
46589;SDS011;32313;48.722;9.362;2023-12-07T04:29:41;34.87;;;29.60;;
46589;SDS011;32313;48.722;9.362;2023-12-07T04:32:07;36.80;;;32.70;;
46589;SDS011;32313;48.722;9.362;2023-12-07T04:34:33;39.13;;;32.87;;
46589;SDS011;32313;48.722;9.362;2023-12-07T04:36:59;42.87;;;32.97;;
46589;SDS011;32313;48.722;9.362;2023-12-07T04:39:24;35.80;;;31.90;;
46589;SDS011;32313;48.722;9.362;2023-12-07T04:41:50;43.70;;;34.83;;
46589;SDS011;32313;48.722;9.362;2023-12-07T04:44:16;35.33;;;31.47;;
46589;SDS011;32313;48.722;9.362;2023-12-07T04:46:42;35.43;;;31.73;;
46589;SDS011;32313;48.722;9.362;2023-12-07T04:49:08;38.47;;;32.73;;
46589;SDS011;32313;48.722;9.362;2023-12-07T04:51:34;34.70;;;29.80;;
46589;SDS011;32313;48.722;9.362;2023-12-07T04:53:59;38.30;;;32.00;;
46589;SDS011;32313;48.722;9.362;2023-12-07T04:56:26;40.17;;;33.17;;
46589;SDS011;32313;48.722;9.362;2023-12-07T04:58:52;34.60;;;30.77;;
46589;SDS011;32313;48.722;9.362;2023-12-07T05:01:17;37.63;;;31.57;;
46589;SDS011;32313;48.722;9.362;2023-12-07T05:03:46;37.07;;;31.93;;
46589;SDS011;32313;48.722;9.362;2023-12-07T05:06:12;36.30;;;31.70;;
46589;SDS011;32313;48.722;9.362;2023-12-07T05:08:39;34.53;;;30.83;;
46589;SDS011;32313;48.722;9.362;2023-12-07T05:11:05;40.37;;;34.10;;
46589;SDS011;32313;48.722;9.362;2023-12-07T05:13:31;44.60;;;34.73;;
46589;SDS011;32313;48.722;9.362;2023-12-07T05:15:59;38.90;;;31.20;;
46589;SDS011;32313;48.722;9.362;2023-12-07T05:18:25;35.53;;;30.20;;
46589;SDS011;32313;48.722;9.362;2023-12-07T05:20:50;36.00;;;30.73;;
46589;SDS011;32313;48.722;9.362;2023-12-07T05:23:16;38.33;;;32.13;;
46589;SDS011;32313;48.722;9.362;2023-12-07T05:25:42;40.60;;;33.23;;
46589;SDS011;32313;48.722;9.362;2023-12-07T05:28:08;38.30;;;31.33;;
46589;SDS011;32313;48.722;9.362;2023-12-07T05:30:35;36.77;;;31.20;;
46589;SDS011;32313;48.722;9.362;2023-12-07T05:33:01;37.43;;;30.97;;
46589;SDS011;32313;48.722;9.362;2023-12-07T05:35:27;37.00;;;31.03;;
46589;SDS011;32313;48.722;9.362;2023-12-07T05:37:53;33.67;;;29.90;;
46589;SDS011;32313;48.722;9.362;2023-12-07T05:40:19;39.90;;;31.40;;
46589;SDS011;32313;48.722;9.362;2023-12-07T05:42:46;34.70;;;31.10;;
46589;SDS011;32313;48.722;9.362;2023-12-07T05:45:14;36.77;;;31.37;;
46589;SDS011;32313;48.722;9.362;2023-12-07T05:47:41;41.90;;;32.83;;
46589;SDS011;32313;48.722;9.362;2023-12-07T05:50:07;35.33;;;30.10;;
46589;SDS011;32313;48.722;9.362;2023-12-07T05:52:33;34.63;;;29.53;;
46589;SDS011;32313;48.722;9.362;2023-12-07T05:54:59;36.50;;;31.20;;
46589;SDS011;32313;48.722;9.362;2023-12-07T05:57:25;39.93;;;32.80;;
46589;SDS011;32313;48.722;9.362;2023-12-07T05:59:50;39.33;;;32.63;;
46589;SDS011;32313;48.722;9.362;2023-12-07T06:02:16;44.53;;;32.43;;
46589;SDS011;32313;48.722;9.362;2023-12-07T06:04:42;36.87;;;31.60;;
46589;SDS011;32313;48.722;9.362;2023-12-07T06:07:07;38.30;;;31.07;;
46589;SDS011;32313;48.722;9.362;2023-12-07T06:09:33;34.60;;;30.87;;
46589;SDS011;32313;48.722;9.362;2023-12-07T06:11:59;37.27;;;31.90;;
46589;SDS011;32313;48.722;9.362;2023-12-07T06:14:25;37.00;;;31.93;;
46589;SDS011;32313;48.722;9.362;2023-12-07T06:16:51;37.87;;;32.60;;
46589;SDS011;32313;48.722;9.362;2023-12-07T06:19:16;42.10;;;34.60;;
46589;SDS011;32313;48.722;9.362;2023-12-07T06:21:43;40.27;;;33.33;;
46589;SDS011;32313;48.722;9.362;2023-12-07T06:24:09;44.67;;;37.07;;
46589;SDS011;32313;48.722;9.362;2023-12-07T06:26:35;40.27;;;32.87;;
46589;SDS011;32313;48.722;9.362;2023-12-07T06:29:01;38.33;;;31.13;;
46589;SDS011;32313;48.722;9.362;2023-12-07T06:31:27;36.20;;;32.30;;
46589;SDS011;32313;48.722;9.362;2023-12-07T06:33:52;40.47;;;33.57;;
46589;SDS011;32313;48.722;9.362;2023-12-07T06:36:22;36.50;;;32.57;;
46589;SDS011;32313;48.722;9.362;2023-12-07T06:38:49;40.73;;;32.50;;
46589;SDS011;32313;48.722;9.362;2023-12-07T06:41:15;40.97;;;33.33;;
46589;SDS011;32313;48.722;9.362;2023-12-07T06:43:41;36.63;;;31.50;;
46589;SDS011;32313;48.722;9.362;2023-12-07T06:46:09;43.07;;;33.33;;
46589;SDS011;32313;48.722;9.362;2023-12-07T06:48:38;43.50;;;34.40;;
46589;SDS011;32313;48.722;9.362;2023-12-07T06:51:04;40.20;;;33.90;;
46589;SDS011;32313;48.722;9.362;2023-12-07T06:53:30;40.33;;;33.17;;
46589;SDS011;32313;48.722;9.362;2023-12-07T06:55:57;39.00;;;32.80;;
46589;SDS011;32313;48.722;9.362;2023-12-07T06:58:22;41.67;;;32.40;;
46589;SDS011;32313;48.722;9.362;2023-12-07T07:00:48;47.23;;;36.10;;
46589;SDS011;32313;48.722;9.362;2023-12-07T07:03:14;44.63;;;35.13;;
46589;SDS011;32313;48.722;9.362;2023-12-07T07:05:40;43.17;;;34.93;;
46589;SDS011;32313;48.722;9.362;2023-12-07T07:08:06;43.53;;;35.33;;
46589;SDS011;32313;48.722;9.362;2023-12-07T07:10:33;47.30;;;36.30;;
46589;SDS011;32313;48.722;9.362;2023-12-07T07:13:02;48.77;;;36.70;;
46589;SDS011;32313;48.722;9.362;2023-12-07T07:15:30;44.80;;;36.80;;
46589;SDS011;32313;48.722;9.362;2023-12-07T07:17:57;44.67;;;36.50;;
46589;SDS011;32313;48.722;9.362;2023-12-07T07:20:22;55.10;;;39.20;;
46589;SDS011;32313;48.722;9.362;2023-12-07T07:22:48;45.90;;;36.90;;
46589;SDS011;32313;48.722;9.362;2023-12-07T07:25:14;43.70;;;34.83;;
46589;SDS011;32313;48.722;9.362;2023-12-07T07:27:41;42.17;;;35.07;;
46589;SDS011;32313;48.722;9.362;2023-12-07T07:30:07;45.13;;;35.97;;
46589;SDS011;32313;48.722;9.362;2023-12-07T07:32:33;46.97;;;36.17;;
46589;SDS011;32313;48.722;9.362;2023-12-07T07:34:59;40.73;;;36.40;;
46589;SDS011;32313;48.722;9.362;2023-12-07T07:37:25;51.63;;;37.43;;
46589;SDS011;32313;48.722;9.362;2023-12-07T07:39:51;44.77;;;36.63;;
46589;SDS011;32313;48.722;9.362;2023-12-07T07:42:16;46.40;;;35.87;;
46589;SDS011;32313;48.722;9.362;2023-12-07T07:44:43;49.27;;;37.50;;
46589;SDS011;32313;48.722;9.362;2023-12-07T07:47:08;39.93;;;35.63;;
46589;SDS011;32313;48.722;9.362;2023-12-07T07:49:34;48.27;;;38.73;;
46589;SDS011;32313;48.722;9.362;2023-12-07T07:51:59;42.73;;;36.30;;
46589;SDS011;32313;48.722;9.362;2023-12-07T07:54:26;47.97;;;38.83;;
46589;SDS011;32313;48.722;9.362;2023-12-07T07:56:51;50.00;;;39.23;;
46589;SDS011;32313;48.722;9.362;2023-12-07T07:59:17;47.50;;;35.47;;
46589;SDS011;32313;48.722;9.362;2023-12-07T08:01:43;50.87;;;38.57;;
46589;SDS011;32313;48.722;9.362;2023-12-07T08:04:12;49.10;;;39.83;;
46589;SDS011;32313;48.722;9.362;2023-12-07T08:06:37;60.97;;;42.90;;
46589;SDS011;32313;48.722;9.362;2023-12-07T08:09:03;54.30;;;40.77;;
46589;SDS011;32313;48.722;9.362;2023-12-07T08:11:29;54.57;;;40.70;;
46589;SDS011;32313;48.722;9.362;2023-12-07T08:13:55;51.93;;;38.50;;
46589;SDS011;32313;48.722;9.362;2023-12-07T08:16:21;61.00;;;42.30;;
46589;SDS011;32313;48.722;9.362;2023-12-07T08:18:47;53.80;;;41.07;;
46589;SDS011;32313;48.722;9.362;2023-12-07T08:21:22;56.87;;;43.80;;
46589;SDS011;32313;48.722;9.362;2023-12-07T08:23:48;59.13;;;43.03;;
46589;SDS011;32313;48.722;9.362;2023-12-07T08:26:14;52.00;;;39.97;;
46589;SDS011;32313;48.722;9.362;2023-12-07T08:28:40;55.70;;;40.97;;
46589;SDS011;32313;48.722;9.362;2023-12-07T08:31:06;59.63;;;42.37;;
46589;SDS011;32313;48.722;9.362;2023-12-07T08:33:32;56.67;;;41.63;;
46589;SDS011;32313;48.722;9.362;2023-12-07T08:36:03;63.10;;;41.93;;
46589;SDS011;32313;48.722;9.362;2023-12-07T08:38:28;56.17;;;40.50;;
46589;SDS011;32313;48.722;9.362;2023-12-07T08:40:54;60.07;;;41.43;;
46589;SDS011;32313;48.722;9.362;2023-12-07T08:43:21;68.00;;;45.50;;
46589;SDS011;32313;48.722;9.362;2023-12-07T08:45:50;58.33;;;41.40;;
46589;SDS011;32313;48.722;9.362;2023-12-07T08:48:17;52.53;;;40.17;;
46589;SDS011;32313;48.722;9.362;2023-12-07T08:50:43;53.90;;;35.70;;
46589;SDS011;32313;48.722;9.362;2023-12-07T08:53:08;47.27;;;35.53;;
46589;SDS011;32313;48.722;9.362;2023-12-07T08:55:34;49.93;;;35.50;;
46589;SDS011;32313;48.722;9.362;2023-12-07T08:58:00;40.07;;;32.03;;
46589;SDS011;32313;48.722;9.362;2023-12-07T09:00:28;39.83;;;31.23;;
46589;SDS011;32313;48.722;9.362;2023-12-07T09:02:53;35.00;;;30.07;;
46589;SDS011;32313;48.722;9.362;2023-12-07T09:05:19;35.73;;;29.90;;
46589;SDS011;32313;48.722;9.362;2023-12-07T09:07:45;38.13;;;30.03;;
46589;SDS011;32313;48.722;9.362;2023-12-07T09:10:11;34.53;;;28.53;;
46589;SDS011;32313;48.722;9.362;2023-12-07T09:12:37;42.33;;;33.33;;
46589;SDS011;32313;48.722;9.362;2023-12-07T09:15:03;36.73;;;29.80;;
46589;SDS011;32313;48.722;9.362;2023-12-07T09:17:29;36.57;;;30.30;;
46589;SDS011;32313;48.722;9.362;2023-12-07T09:19:55;32.63;;;28.70;;
46589;SDS011;32313;48.722;9.362;2023-12-07T09:22:20;33.80;;;27.33;;
46589;SDS011;32313;48.722;9.362;2023-12-07T09:24:46;34.50;;;28.77;;
46589;SDS011;32313;48.722;9.362;2023-12-07T09:27:15;39.07;;;30.97;;
46589;SDS011;32313;48.722;9.362;2023-12-07T09:29:41;51.07;;;32.83;;
46589;SDS011;32313;48.722;9.362;2023-12-07T09:32:07;36.57;;;29.63;;
46589;SDS011;32313;48.722;9.362;2023-12-07T09:34:33;35.47;;;28.83;;
46589;SDS011;32313;48.722;9.362;2023-12-07T09:37:08;28.77;;;25.83;;
46589;SDS011;32313;48.722;9.362;2023-12-07T09:39:35;28.07;;;25.03;;
46589;SDS011;32313;48.722;9.362;2023-12-07T09:42:01;27.00;;;24.03;;
46589;SDS011;32313;48.722;9.362;2023-12-07T09:44:27;27.30;;;24.50;;
46589;SDS011;32313;48.722;9.362;2023-12-07T09:46:53;25.60;;;22.27;;
46589;SDS011;32313;48.722;9.362;2023-12-07T09:49:19;25.00;;;22.40;;
46589;SDS011;32313;48.722;9.362;2023-12-07T09:51:46;20.53;;;18.67;;
46589;SDS011;32313;48.722;9.362;2023-12-07T09:54:12;20.93;;;19.00;;
46589;SDS011;32313;48.722;9.362;2023-12-07T09:56:38;20.50;;;18.60;;
46589;SDS011;32313;48.722;9.362;2023-12-07T09:59:05;19.43;;;17.43;;
46589;SDS011;32313;48.722;9.362;2023-12-07T10:01:32;18.03;;;16.33;;
46589;SDS011;32313;48.722;9.362;2023-12-07T10:04:16;18.63;;;16.83;;
46589;SDS011;32313;48.722;9.362;2023-12-07T10:06:45;20.00;;;18.10;;
46589;SDS011;32313;48.722;9.362;2023-12-07T10:09:13;17.87;;;16.27;;
46589;SDS011;32313;48.722;9.362;2023-12-07T10:11:39;18.83;;;17.07;;
46589;SDS011;32313;48.722;9.362;2023-12-07T10:14:06;17.20;;;15.53;;
46589;SDS011;32313;48.722;9.362;2023-12-07T10:16:36;19.00;;;17.20;;
46589;SDS011;32313;48.722;9.362;2023-12-07T10:19:15;17.40;;;15.77;;
46589;SDS011;32313;48.722;9.362;2023-12-07T10:21:44;17.77;;;16.07;;
46589;SDS011;32313;48.722;9.362;2023-12-07T10:24:11;17.33;;;15.53;;
46589;SDS011;32313;48.722;9.362;2023-12-07T10:26:39;17.87;;;16.27;;
46589;SDS011;32313;48.722;9.362;2023-12-07T10:29:05;18.93;;;17.03;;
46589;SDS011;32313;48.722;9.362;2023-12-07T10:31:31;17.47;;;15.87;;
46589;SDS011;32313;48.722;9.362;2023-12-07T10:33:58;15.30;;;13.90;;
46589;SDS011;32313;48.722;9.362;2023-12-07T10:36:25;15.90;;;14.20;;
46589;SDS011;32313;48.722;9.362;2023-12-07T10:38:51;15.10;;;13.70;;
46589;SDS011;32313;48.722;9.362;2023-12-07T10:41:18;15.57;;;13.97;;
46589;SDS011;32313;48.722;9.362;2023-12-07T10:43:48;15.27;;;13.60;;
46589;SDS011;32313;48.722;9.362;2023-12-07T10:46:33;12.67;;;11.37;;
46589;SDS011;32313;48.722;9.362;2023-12-07T10:49:07;14.23;;;12.97;;
46589;SDS011;32313;48.722;9.362;2023-12-07T10:51:38;14.80;;;13.50;;
46589;SDS011;32313;48.722;9.362;2023-12-07T10:54:10;14.17;;;12.77;;
46589;SDS011;32313;48.722;9.362;2023-12-07T10:56:45;13.33;;;12.10;;
46589;SDS011;32313;48.722;9.362;2023-12-07T10:59:13;14.20;;;12.90;;
46589;SDS011;32313;48.722;9.362;2023-12-07T11:01:40;13.43;;;12.13;;
46589;SDS011;32313;48.722;9.362;2023-12-07T11:04:08;13.87;;;12.57;;
46589;SDS011;32313;48.722;9.362;2023-12-07T11:06:39;14.77;;;12.60;;
46589;SDS011;32313;48.722;9.362;2023-12-07T11:09:08;12.90;;;11.77;;
46589;SDS011;32313;48.722;9.362;2023-12-07T11:11:37;12.63;;;11.43;;
46589;SDS011;32313;48.722;9.362;2023-12-07T11:14:08;11.93;;;10.83;;
46589;SDS011;32313;48.722;9.362;2023-12-07T11:16:40;11.63;;;10.43;;
46589;SDS011;32313;48.722;9.362;2023-12-07T11:21:54;11.90;;;10.70;;
46589;SDS011;32313;48.722;9.362;2023-12-07T11:24:24;12.50;;;11.20;;
46589;SDS011;32313;48.722;9.362;2023-12-07T11:26:53;12.10;;;10.90;;
46589;SDS011;32313;48.722;9.362;2023-12-07T11:29:20;12.00;;;10.90;;
46589;SDS011;32313;48.722;9.362;2023-12-07T11:31:48;10.73;;;9.83;;
46589;SDS011;32313;48.722;9.362;2023-12-07T11:34:33;11.80;;;10.63;;
46589;SDS011;32313;48.722;9.362;2023-12-07T11:37:06;12.10;;;10.70;;
46589;SDS011;32313;48.722;9.362;2023-12-07T11:39:36;11.40;;;10.30;;
46589;SDS011;32313;48.722;9.362;2023-12-07T11:42:11;9.87;;;8.87;;
46589;SDS011;32313;48.722;9.362;2023-12-07T11:44:40;11.27;;;9.87;;
46589;SDS011;32313;48.722;9.362;2023-12-07T11:47:06;8.63;;;7.83;;
46589;SDS011;32313;48.722;9.362;2023-12-07T11:49:34;8.80;;;7.93;;
46589;SDS011;32313;48.722;9.362;2023-12-07T11:51:59;8.03;;;7.23;;
46589;SDS011;32313;48.722;9.362;2023-12-07T11:54:26;7.67;;;6.97;;
46589;SDS011;32313;48.722;9.362;2023-12-07T11:56:55;7.77;;;6.83;;
46589;SDS011;32313;48.722;9.362;2023-12-07T11:59:23;7.70;;;6.80;;
46589;SDS011;32313;48.722;9.362;2023-12-07T12:01:51;6.77;;;6.17;;
46589;SDS011;32313;48.722;9.362;2023-12-07T12:04:17;7.63;;;6.90;;
46589;SDS011;32313;48.722;9.362;2023-12-07T12:06:46;6.30;;;5.70;;
46589;SDS011;32313;48.722;9.362;2023-12-07T12:09:15;7.47;;;6.77;;
46589;SDS011;32313;48.722;9.362;2023-12-07T12:11:44;6.53;;;5.93;;
46589;SDS011;32313;48.722;9.362;2023-12-07T12:14:12;6.47;;;5.87;;
46589;SDS011;32313;48.722;9.362;2023-12-07T12:16:44;6.13;;;5.63;;
46589;SDS011;32313;48.722;9.362;2023-12-07T12:19:12;6.70;;;6.10;;
46589;SDS011;32313;48.722;9.362;2023-12-07T12:21:41;7.77;;;7.00;;
46589;SDS011;32313;48.722;9.362;2023-12-07T12:24:08;7.53;;;6.70;;
46589;SDS011;32313;48.722;9.362;2023-12-07T12:26:37;7.13;;;6.33;;
46589;SDS011;32313;48.722;9.362;2023-12-07T12:29:05;6.87;;;6.33;;
46589;SDS011;32313;48.722;9.362;2023-12-07T12:31:35;8.13;;;7.43;;
46589;SDS011;32313;48.722;9.362;2023-12-07T12:34:01;7.53;;;6.83;;
46589;SDS011;32313;48.722;9.362;2023-12-07T12:36:27;8.00;;;7.20;;
46589;SDS011;32313;48.722;9.362;2023-12-07T12:38:54;7.77;;;7.13;;
46589;SDS011;32313;48.722;9.362;2023-12-07T12:41:24;8.07;;;7.37;;
46589;SDS011;32313;48.722;9.362;2023-12-07T12:43:49;7.83;;;7.17;;
46589;SDS011;32313;48.722;9.362;2023-12-07T12:46:16;7.77;;;6.97;;
46589;SDS011;32313;48.722;9.362;2023-12-07T12:48:52;8.23;;;7.53;;
46589;SDS011;32313;48.722;9.362;2023-12-07T12:51:22;7.73;;;7.10;;
46589;SDS011;32313;48.722;9.362;2023-12-07T12:53:50;8.13;;;6.90;;
46589;SDS011;32313;48.722;9.362;2023-12-07T12:56:18;8.50;;;7.53;;
46589;SDS011;32313;48.722;9.362;2023-12-07T12:58:45;8.90;;;7.73;;
46589;SDS011;32313;48.722;9.362;2023-12-07T13:01:11;7.60;;;6.90;;
46589;SDS011;32313;48.722;9.362;2023-12-07T13:03:37;6.80;;;6.20;;
46589;SDS011;32313;48.722;9.362;2023-12-07T13:06:03;6.97;;;6.37;;
46589;SDS011;32313;48.722;9.362;2023-12-07T13:08:29;7.10;;;6.50;;
46589;SDS011;32313;48.722;9.362;2023-12-07T13:10:55;6.87;;;6.17;;
46589;SDS011;32313;48.722;9.362;2023-12-07T13:13:21;5.63;;;5.07;;
46589;SDS011;32313;48.722;9.362;2023-12-07T13:15:46;5.50;;;4.80;;
46589;SDS011;32313;48.722;9.362;2023-12-07T13:18:12;5.33;;;4.87;;
46589;SDS011;32313;48.722;9.362;2023-12-07T13:20:38;5.77;;;5.27;;
46589;SDS011;32313;48.722;9.362;2023-12-07T13:23:04;4.70;;;4.30;;
46589;SDS011;32313;48.722;9.362;2023-12-07T13:25:30;4.63;;;4.33;;
46589;SDS011;32313;48.722;9.362;2023-12-07T13:27:55;4.77;;;4.37;;
46589;SDS011;32313;48.722;9.362;2023-12-07T13:30:21;4.73;;;4.23;;
46589;SDS011;32313;48.722;9.362;2023-12-07T13:32:47;4.33;;;4.03;;
46589;SDS011;32313;48.722;9.362;2023-12-07T13:35:13;4.77;;;4.23;;
46589;SDS011;32313;48.722;9.362;2023-12-07T13:37:38;4.40;;;4.10;;
46589;SDS011;32313;48.722;9.362;2023-12-07T13:40:04;4.50;;;4.10;;
46589;SDS011;32313;48.722;9.362;2023-12-07T13:42:35;4.27;;;3.87;;
46589;SDS011;32313;48.722;9.362;2023-12-07T13:45:02;4.53;;;4.23;;
46589;SDS011;32313;48.722;9.362;2023-12-07T13:47:28;5.57;;;5.03;;
46589;SDS011;32313;48.722;9.362;2023-12-07T13:49:57;4.73;;;4.40;;
46589;SDS011;32313;48.722;9.362;2023-12-07T13:52:24;5.03;;;4.53;;
46589;SDS011;32313;48.722;9.362;2023-12-07T13:54:50;5.03;;;4.63;;
46589;SDS011;32313;48.722;9.362;2023-12-07T13:57:16;4.80;;;4.40;;
46589;SDS011;32313;48.722;9.362;2023-12-07T13:59:41;5.10;;;4.70;;
46589;SDS011;32313;48.722;9.362;2023-12-07T14:02:07;4.80;;;4.40;;
46589;SDS011;32313;48.722;9.362;2023-12-07T14:04:33;4.90;;;4.50;;
46589;SDS011;32313;48.722;9.362;2023-12-07T14:07:06;4.97;;;4.67;;
46589;SDS011;32313;48.722;9.362;2023-12-07T14:09:36;4.97;;;4.57;;
46589;SDS011;32313;48.722;9.362;2023-12-07T14:12:03;5.27;;;4.87;;
46589;SDS011;32313;48.722;9.362;2023-12-07T14:14:35;4.67;;;4.27;;
46589;SDS011;32313;48.722;9.362;2023-12-07T14:17:01;5.07;;;4.67;;
46589;SDS011;32313;48.722;9.362;2023-12-07T14:19:26;4.97;;;4.57;;
46589;SDS011;32313;48.722;9.362;2023-12-07T14:21:53;5.40;;;4.90;;
46589;SDS011;32313;48.722;9.362;2023-12-07T14:24:20;5.40;;;5.00;;
46589;SDS011;32313;48.722;9.362;2023-12-07T14:26:46;5.80;;;5.17;;
46589;SDS011;32313;48.722;9.362;2023-12-07T14:29:12;5.50;;;5.00;;